createdAt,value
2019-05-22T00:00:16.772Z,100251.80
2019-05-22T00:02:47.770Z,100251.31
2019-05-22T00:05:18.113Z,100249.30
2019-05-22T00:07:48.923Z,100258.86
2019-05-22T00:10:22.435Z,100258.99
2019-05-22T00:12:53.004Z,100259.36
2019-05-22T00:15:23.990Z,100259.95
2019-05-22T00:17:54.327Z,100262.19
2019-05-22T00:20:26.026Z,100259.47
2019-05-22T00:22:55.055Z,100264.13
2019-05-22T00:25:29.006Z,100262.80
2019-05-22T00:27:59.658Z,100259.25
2019-05-22T00:30:29.101Z,100261.75
2019-05-22T00:33:00.450Z,100263.64
2019-05-22T00:35:30.830Z,100263.20
2019-05-22T00:38:01.600Z,100269.84
2019-05-22T00:40:32.201Z,100266.97
2019-05-22T00:43:05.540Z,100265.55
2019-05-22T00:45:31.527Z,100269.64
2019-05-22T00:48:00.752Z,100275.72
2019-05-22T00:50:33.868Z,100280.50
2019-05-22T00:53:22.058Z,100286.82
2019-05-22T00:55:53.231Z,100286.45
2019-05-22T00:58:29.639Z,100293.59
2019-05-22T01:01:04.212Z,100299.53
2019-05-22T01:03:34.258Z,100302.55
2019-05-22T01:06:04.933Z,100305.23
2019-05-22T01:08:36.618Z,100305.70
2019-05-22T01:11:07.646Z,100315.66
2019-05-22T01:13:37.777Z,100315.39
2019-05-22T01:16:08.389Z,100316.27
2019-05-22T01:18:38.923Z,100305.91
2019-05-22T01:21:07.877Z,100315.31
2019-05-22T01:23:36.696Z,100318.60
2019-05-22T01:26:09.411Z,100317.05
2019-05-22T01:28:39.044Z,100321.67
2019-05-22T01:31:09.335Z,100329.55
2019-05-22T01:33:52.381Z,100327.55
2019-05-22T01:36:26.207Z,100329.53
2019-05-22T01:38:59.086Z,100332.70
2019-05-22T01:41:37.236Z,100329.98
2019-05-22T01:44:09.101Z,100332.80
2019-05-22T01:46:42.158Z,100333.77
2019-05-22T01:49:13.219Z,100331.14
2019-05-22T01:51:42.543Z,100328.19
2019-05-22T01:54:11.767Z,100325.56
2019-05-22T01:56:42.331Z,100326.05
2019-05-22T01:59:12.478Z,100323.27
2019-05-22T02:01:42.234Z,100327.77
2019-05-22T02:04:14.826Z,100335.23
2019-05-22T02:06:43.848Z,100326.33
2019-05-22T02:09:46.464Z,100332.67
2019-05-22T02:12:18.050Z,100334.83
2019-05-22T02:14:50.730Z,100327.52
2019-05-22T02:17:22.636Z,100333.59
2019-05-22T02:19:52.369Z,100336.84
2019-05-22T02:22:22.126Z,100341.05
2019-05-22T02:24:52.093Z,100346.30
2019-05-22T02:27:21.380Z,100341.94
2019-05-22T02:29:52.409Z,100337.59
2019-05-22T02:32:23.006Z,100348.23
2019-05-22T02:34:52.275Z,100345.72
2019-05-22T02:37:22.144Z,100340.78
2019-05-22T02:39:53.439Z,100346.64
2019-05-22T02:42:26.010Z,100345.47
2019-05-22T02:44:55.610Z,100354.03
2019-05-22T02:47:25.334Z,100358.13
2019-05-22T02:49:56.155Z,100349.68
2019-05-22T02:52:25.649Z,100355.12
2019-05-22T02:54:55.349Z,100354.20
2019-05-22T02:57:26.386Z,100363.94
2019-05-22T02:59:55.804Z,100365.08
2019-05-22T03:02:25.424Z,100363.70
2019-05-22T03:05:09.837Z,100366.44
2019-05-22T03:07:40.290Z,100369.14
2019-05-22T03:10:12.382Z,100373.91
2019-05-22T03:12:42.019Z,100375.22
2019-05-22T03:15:14.312Z,100375.81
2019-05-22T03:17:43.747Z,100373.01
2019-05-22T03:20:18.859Z,100367.18
2019-05-22T03:23:18.554Z,100370.20
2019-05-22T03:25:49.111Z,100373.89
2019-05-22T03:28:18.021Z,100379.30
2019-05-22T03:30:47.534Z,100377.38
2019-05-22T03:33:16.655Z,100385.02
2019-05-22T03:35:50.557Z,100378.98
2019-05-22T03:38:20.596Z,100385.89
2019-05-22T03:40:52.242Z,100391.43
2019-05-22T03:43:28.161Z,100390.48
2019-05-22T03:45:59.849Z,100395.19
2019-05-22T03:48:32.560Z,100394.34
2019-05-22T03:51:11.212Z,100400.53
2019-05-22T03:53:41.356Z,100404.64
2019-05-22T03:56:10.306Z,100405.70
2019-05-22T03:58:39.411Z,100402.02
2019-05-22T04:01:09.164Z,100409.70
2019-05-22T04:03:38.630Z,100409.12
2019-05-22T04:06:08.505Z,100409.59
2019-05-22T04:08:38.635Z,100406.78
2019-05-22T04:11:08.628Z,100408.75
2019-05-22T04:13:38.765Z,100411.01
2019-05-22T04:16:10.098Z,100415.98
2019-05-22T04:18:40.759Z,100413.16
2019-05-22T04:21:09.577Z,100414.65
2019-05-22T04:23:39.420Z,100419.34
2019-05-22T04:26:09.523Z,100415.05
2019-05-22T04:28:48.195Z,100414.46
2019-05-22T04:31:37.426Z,100416.56
2019-05-22T04:34:10.582Z,100416.27
2019-05-22T04:36:40.027Z,100428.13
2019-05-22T04:39:13.175Z,100425.91
2019-05-22T04:41:43.599Z,100422.08
2019-05-22T04:44:12.666Z,100425.91
2019-05-22T04:46:42.601Z,100431.23
2019-05-22T04:49:12.087Z,100430.77
2019-05-22T04:51:41.224Z,100430.02
2019-05-22T04:54:10.349Z,100431.14
2019-05-22T04:56:39.508Z,100431.61
2019-05-22T04:59:09.143Z,100430.95
2019-05-22T05:01:38.844Z,100434.05
2019-05-22T05:04:08.584Z,100430.03
2019-05-22T05:06:38.890Z,100430.31
2019-05-22T05:09:11.018Z,100425.30
2019-05-22T05:11:42.786Z,100423.36
2019-05-22T05:14:12.408Z,100423.56
2019-05-22T05:16:42.374Z,100424.87
2019-05-22T05:19:11.890Z,100429.63
2019-05-22T05:21:41.634Z,100425.14
2019-05-22T05:24:12.469Z,100434.76
2019-05-22T05:26:41.496Z,100437.08
2019-05-22T05:29:29.191Z,100433.63
2019-05-22T05:31:59.979Z,100438.95
2019-05-22T05:34:44.842Z,100442.72
2019-05-22T05:37:13.802Z,100444.92
2019-05-22T05:39:48.207Z,100447.81
2019-05-22T05:42:18.495Z,100453.81
2019-05-22T05:45:07.802Z,100448.78
2019-05-22T05:47:37.656Z,100437.92
2019-05-22T05:50:12.699Z,100434.47
2019-05-22T05:52:41.924Z,100430.84
2019-05-22T05:55:11.884Z,100435.88
2019-05-22T05:57:43.869Z,100441.55
2019-05-22T06:00:22.390Z,100437.08
2019-05-22T06:02:56.557Z,100451.27
2019-05-22T06:05:26.386Z,100456.76
2019-05-22T06:07:55.731Z,100460.68
2019-05-22T06:10:30.378Z,100466.78
2019-05-22T06:13:00.523Z,100466.69
2019-05-22T06:15:45.820Z,100473.69
2019-05-22T06:18:10.620Z,100473.69
2019-05-22T06:20:39.689Z,100477.23
2019-05-22T06:23:17.223Z,100478.98
2019-05-22T06:25:46.646Z,100485.46
2019-05-22T06:28:16.254Z,100479.59
2019-05-22T06:30:46.379Z,100487.80
2019-05-22T06:33:29.636Z,100482.53
2019-05-22T06:35:59.242Z,100484.89
2019-05-22T06:38:42.385Z,100490.73
2019-05-22T06:41:12.207Z,100496.64
2019-05-22T06:43:43.790Z,100504.55
2019-05-22T06:46:15.059Z,100512.66
2019-05-22T06:48:45.743Z,100511.75
2019-05-22T06:51:19.343Z,100514.47
2019-05-22T06:53:45.857Z,100517.23
2019-05-22T06:56:14.928Z,100523.72
2019-05-22T06:58:43.736Z,100525.53
2019-05-22T07:01:12.616Z,100522.25
2019-05-22T07:03:41.645Z,100526.66
2019-05-22T07:06:10.419Z,100534.33
2019-05-22T07:08:39.955Z,100533.28
2019-05-22T07:11:09.932Z,100532.41
2019-05-22T07:13:39.170Z,100534.12
2019-05-22T07:16:07.898Z,100532.69
2019-05-22T07:18:36.577Z,100534.56
2019-05-22T07:21:06.612Z,100540.91
2019-05-22T07:23:36.705Z,100531.86
2019-05-22T07:26:06.061Z,100534.88
2019-05-22T07:28:36.848Z,100538.17
2019-05-22T07:31:06.062Z,100532.02
2019-05-22T07:33:35.277Z,100529.25
2019-05-22T07:36:09.973Z,100538.92
2019-05-22T07:38:39.112Z,100542.68
2019-05-22T07:41:08.439Z,100538.48
2019-05-22T07:43:41.248Z,100542.25
2019-05-22T07:46:08.059Z,100546.57
2019-05-22T07:48:37.373Z,100556.71
2019-05-22T07:51:08.303Z,100560.45
2019-05-22T07:53:37.246Z,100566.98
2019-05-22T07:56:10.270Z,100559.55
2019-05-22T07:58:39.119Z,100570.74
2019-05-22T08:01:08.358Z,100571.17
2019-05-22T08:03:37.381Z,100576.43
2019-05-22T08:06:08.323Z,100570.80
2019-05-22T08:08:38.405Z,100574.28
2019-05-22T08:11:07.703Z,100577.58
2019-05-22T08:13:37.807Z,100574.56
2019-05-22T08:16:07.534Z,100573.72
2019-05-22T08:18:41.205Z,100579.56
2019-05-22T08:21:11.146Z,100568.84
2019-05-22T08:23:39.925Z,100573.84
2019-05-22T08:26:10.926Z,100583.75
2019-05-22T08:28:41.115Z,100594.22
2019-05-22T08:31:11.194Z,100589.94
2019-05-22T08:33:39.912Z,100593.42
2019-05-22T08:36:09.879Z,100587.95
2019-05-22T08:38:39.827Z,100584.92
2019-05-22T08:41:09.307Z,100596.22
2019-05-22T08:44:03.442Z,100596.00
2019-05-22T08:46:11.358Z,100602.66
2019-05-22T08:48:47.503Z,100607.23
2019-05-22T08:51:12.455Z,100612.81
2019-05-22T08:53:47.461Z,100613.59
2019-05-22T08:56:13.465Z,100619.03
2019-05-22T08:58:44.300Z,100621.12
2019-05-22T09:01:14.221Z,100627.80
2019-05-22T09:03:42.868Z,100638.02
2019-05-22T09:06:11.864Z,100638.06
2019-05-22T09:08:40.876Z,100637.52
2019-05-22T09:11:10.012Z,100633.06
2019-05-22T09:13:39.108Z,100635.49
2019-05-22T09:16:08.538Z,100638.98
2019-05-22T09:18:37.558Z,100640.66
2019-05-22T09:21:09.640Z,100645.06
2019-05-22T09:23:39.098Z,100646.24
2019-05-22T09:26:08.218Z,100640.16
2019-05-22T09:28:37.982Z,100643.97
2019-05-22T09:31:06.636Z,100647.02
2019-05-22T09:33:37.668Z,100642.08
2019-05-22T09:36:06.880Z,100651.59
2019-05-22T09:38:38.880Z,100658.34
2019-05-22T09:41:07.791Z,100648.77
2019-05-22T09:43:36.707Z,100667.67
2019-05-22T09:46:08.429Z,100664.16
2019-05-22T09:48:37.526Z,100666.12
2019-05-22T09:51:09.115Z,100667.73
2019-05-22T09:53:38.586Z,100667.59
2019-05-22T09:56:07.359Z,100673.06
2019-05-22T09:58:37.931Z,100678.53
2019-05-22T10:01:11.516Z,100675.58
2019-05-22T10:03:38.215Z,100673.34
2019-05-22T10:06:07.726Z,100676.95
2019-05-22T10:08:36.759Z,100676.36
2019-05-22T10:11:08.952Z,100678.08
2019-05-22T10:13:37.932Z,100678.01
2019-05-22T10:16:06.905Z,100680.84
2019-05-22T10:18:38.702Z,100678.45
2019-05-22T10:21:07.431Z,100682.31
2019-05-22T10:23:37.957Z,100682.59
2019-05-22T10:26:07.176Z,100687.16
2019-05-22T10:28:36.997Z,100687.02
2019-05-22T10:31:26.253Z,100693.23
2019-05-22T10:33:55.070Z,100698.34
2019-05-22T10:36:24.491Z,100695.14
2019-05-22T10:38:53.720Z,100694.61
2019-05-22T10:41:22.742Z,100683.96
2019-05-22T10:43:51.985Z,100693.29
2019-05-22T10:46:20.891Z,100690.45
2019-05-22T10:48:50.117Z,100694.81
2019-05-22T10:51:19.038Z,100700.66
2019-05-22T10:53:48.775Z,100699.83
2019-05-22T10:56:18.411Z,100705.83
2019-05-22T10:58:47.263Z,100711.04
2019-05-22T11:01:15.932Z,100724.58
2019-05-22T11:03:45.155Z,100720.84
2019-05-22T11:06:13.979Z,100724.69
2019-05-22T11:08:42.896Z,100718.16
2019-05-22T11:11:11.721Z,100722.13
2019-05-22T11:13:58.085Z,100731.20
2019-05-22T11:16:12.755Z,100730.35
2019-05-22T11:18:42.478Z,100728.35
2019-05-22T11:21:12.576Z,100728.69
2019-05-22T11:23:51.051Z,100727.21
2019-05-22T11:26:12.502Z,100721.30
2019-05-22T11:28:42.493Z,100730.95
2019-05-22T11:31:11.914Z,100729.73
2019-05-22T11:33:40.946Z,100734.73
2019-05-22T11:36:10.868Z,100731.28
2019-05-22T11:38:39.934Z,100738.20
2019-05-22T11:41:08.739Z,100736.99
2019-05-22T11:43:37.455Z,100741.74
2019-05-22T11:46:09.549Z,100740.10
2019-05-22T11:48:38.586Z,100741.39
2019-05-22T11:51:07.917Z,100738.59
2019-05-22T11:53:36.683Z,100730.36
2019-05-22T11:56:08.429Z,100742.30
2019-05-22T11:58:37.370Z,100740.45
2019-05-22T12:01:08.381Z,100744.67
2019-05-22T12:03:37.291Z,100740.44
2019-05-22T12:06:07.592Z,100738.06
2019-05-22T12:08:39.269Z,100743.53
2019-05-22T12:11:09.508Z,100738.21
2019-05-22T12:13:38.714Z,100738.77
2019-05-22T12:16:07.873Z,100739.70
2019-05-22T12:18:37.396Z,100743.14
2019-05-22T12:21:09.340Z,100747.91
2019-05-22T12:23:38.412Z,100748.41
2019-05-22T12:26:08.266Z,100756.14
2019-05-22T12:28:37.215Z,100752.83
2019-05-22T12:31:08.271Z,100756.52
2019-05-22T12:33:37.426Z,100758.52
2019-05-22T12:36:12.228Z,100758.98
2019-05-22T12:38:41.989Z,100753.91
2019-05-22T12:41:11.616Z,100763.46
2019-05-22T12:43:44.050Z,100762.20
2019-05-22T12:46:12.711Z,100767.15
2019-05-22T12:48:42.814Z,100771.58
2019-05-22T12:51:12.355Z,100771.81
2019-05-22T12:53:41.203Z,100774.34
2019-05-22T12:56:09.961Z,100773.27
2019-05-22T12:58:40.195Z,100779.75
2019-05-22T13:01:08.977Z,100782.27
2019-05-22T13:03:38.899Z,100786.65
2019-05-22T13:06:09.369Z,100783.17
2019-05-22T13:08:38.988Z,100778.57
2019-05-22T13:11:08.130Z,100778.57
2019-05-22T13:13:37.062Z,100785.63
2019-05-22T13:16:06.274Z,100781.88
2019-05-22T13:18:36.051Z,100772.97
2019-05-22T13:21:06.363Z,100785.02
2019-05-22T13:23:38.834Z,100787.95
2019-05-22T13:26:08.774Z,100786.42
2019-05-22T13:28:39.793Z,100782.58
2019-05-22T13:31:09.933Z,100782.48
2019-05-22T13:33:40.048Z,100787.16
2019-05-22T13:36:11.010Z,100790.70
2019-05-22T13:38:40.656Z,100792.72
2019-05-22T13:41:10.770Z,100788.66
2019-05-22T13:43:39.803Z,100792.64
2019-05-22T13:46:09.350Z,100794.82
2019-05-22T13:48:38.635Z,100789.73
2019-05-22T13:51:29.055Z,100794.27
2019-05-22T13:53:59.406Z,100794.13
2019-05-22T13:56:28.547Z,100793.74
2019-05-22T13:58:57.271Z,100791.12
2019-05-22T14:01:26.297Z,100795.43
2019-05-22T14:03:54.936Z,100800.28
2019-05-22T14:06:24.149Z,100807.66
2019-05-22T14:08:52.782Z,100812.23
2019-05-22T14:11:21.565Z,100811.25
2019-05-22T14:13:51.485Z,100821.31
2019-05-22T14:16:20.894Z,100818.18
2019-05-22T14:18:49.746Z,100821.40
2019-05-22T14:21:18.866Z,100820.55
2019-05-22T14:23:47.691Z,100823.08
2019-05-22T14:26:16.508Z,100822.78
2019-05-22T14:28:45.518Z,100830.61
2019-05-22T14:31:14.578Z,100823.84
2019-05-22T14:33:43.744Z,100825.23
2019-05-22T14:36:12.457Z,100829.06
2019-05-22T14:38:41.698Z,100831.92
2019-05-22T14:41:11.148Z,100830.55
2019-05-22T14:43:40.359Z,100826.22
2019-05-22T14:46:09.153Z,100827.86
2019-05-22T14:48:40.740Z,100840.45
2019-05-22T14:51:10.752Z,100841.52
2019-05-22T14:53:40.287Z,100837.55
2019-05-22T14:56:11.261Z,100843.69
2019-05-22T14:58:40.970Z,100845.78
2019-05-22T15:01:10.529Z,100848.16
2019-05-22T15:03:39.327Z,100848.06
2019-05-22T15:06:08.454Z,100851.52
2019-05-22T15:08:37.386Z,100853.45
2019-05-22T15:11:07.627Z,100855.62
2019-05-22T15:13:39.217Z,100859.75
2019-05-22T15:16:07.932Z,100861.36
2019-05-22T15:18:36.749Z,100870.66
2019-05-22T15:21:09.422Z,100871.91
2019-05-22T15:23:38.467Z,100867.06
2019-05-22T15:26:08.398Z,100868.67
2019-05-22T15:28:37.137Z,100876.98
2019-05-22T15:31:07.716Z,100874.97
2019-05-22T15:33:36.812Z,100872.59
2019-05-22T15:36:08.148Z,100872.58
2019-05-22T15:38:39.749Z,100878.28
2019-05-22T15:41:09.579Z,100877.75
2019-05-22T15:43:40.445Z,100875.64
2019-05-22T15:46:10.337Z,100875.83
2019-05-22T15:48:41.905Z,100877.37
2019-05-22T15:51:10.866Z,100878.98
2019-05-22T15:53:40.439Z,100876.91
2019-05-22T15:56:10.901Z,100875.38
2019-05-22T15:58:42.983Z,100883.58
2019-05-22T16:01:15.452Z,100881.90
2019-05-22T16:03:46.509Z,100881.58
2019-05-22T16:06:16.466Z,100886.91
2019-05-22T16:08:45.697Z,100884.75
2019-05-22T16:11:16.924Z,100884.42
2019-05-22T16:13:48.247Z,100884.56
2019-05-22T16:16:20.319Z,100888.59
2019-05-22T16:18:52.586Z,100880.59
2019-05-22T16:21:21.928Z,100885.50
2019-05-22T16:23:50.745Z,100882.13
2019-05-22T16:26:20.069Z,100887.18
2019-05-22T16:28:49.115Z,100890.96
2019-05-22T16:31:21.295Z,100888.81
2019-05-22T16:33:53.053Z,100893.50
2019-05-22T16:36:24.185Z,100890.89
2019-05-22T16:38:55.093Z,100889.80
2019-05-22T16:41:26.680Z,100886.66
2019-05-22T16:43:56.276Z,100887.97
2019-05-22T16:46:26.438Z,100894.98
2019-05-22T16:48:56.330Z,100900.70
2019-05-22T16:51:27.716Z,100894.74
2019-05-22T16:56:59.606Z,100906.50
2019-05-22T16:59:30.203Z,100905.95
2019-05-22T17:02:00.955Z,100910.48
2019-05-22T17:04:30.663Z,100912.33
2019-05-22T17:07:01.495Z,100907.48
2019-05-22T17:09:31.132Z,100909.64
2019-05-22T17:12:04.622Z,100916.05
2019-05-22T17:14:34.441Z,100913.09
2019-05-22T17:17:04.150Z,100913.80
2019-05-22T17:19:35.714Z,100915.19
2019-05-22T17:22:06.622Z,100920.55
2019-05-22T17:24:37.078Z,100923.07
2019-05-22T17:27:08.311Z,100923.91
2019-05-22T17:29:37.471Z,100920.59
2019-05-22T17:32:08.241Z,100918.55
2019-05-22T17:34:37.816Z,100925.35
2019-05-22T17:37:09.795Z,100922.28
2019-05-22T17:39:42.331Z,100929.77
2019-05-22T17:42:14.083Z,100936.30
2019-05-22T17:44:46.477Z,100924.91
2019-05-22T17:47:16.510Z,100931.77
2019-05-22T17:49:46.200Z,100931.47
2019-05-22T17:52:16.231Z,100935.31
2019-05-22T17:54:45.676Z,100940.32
2019-05-22T17:57:15.524Z,100944.23
2019-05-22T17:59:44.948Z,100945.98
2019-05-22T18:02:15.495Z,100943.80
2019-05-22T18:04:47.090Z,100941.86
2019-05-22T18:07:16.530Z,100949.90
2019-05-22T18:09:46.317Z,100945.59
2019-05-22T18:12:16.637Z,100949.22
2019-05-22T18:14:47.057Z,100950.69
2019-05-22T18:17:16.306Z,100953.92
2019-05-22T18:19:45.066Z,100956.92
2019-05-22T18:22:14.616Z,100962.09
2019-05-22T18:24:43.441Z,100960.10
2019-05-22T18:27:12.560Z,100965.02
2019-05-22T18:29:41.277Z,100965.47
2019-05-22T18:32:10.704Z,100970.20
2019-05-22T18:34:39.840Z,100975.92
2019-05-22T18:37:08.553Z,100973.17
2019-05-22T18:39:38.152Z,100972.98
2019-05-22T18:42:06.933Z,100976.90
2019-05-22T18:44:35.736Z,100981.39
2019-05-22T18:47:05.061Z,100990.08
2019-05-22T18:49:36.515Z,100989.45
2019-05-22T18:52:07.164Z,100988.23
2019-05-22T18:54:36.678Z,100993.62
2019-05-22T18:57:06.912Z,101001.16
2019-05-22T18:59:38.911Z,100997.05
2019-05-22T19:02:09.495Z,100996.75
2019-05-22T19:04:39.200Z,101004.37
2019-05-22T19:07:08.673Z,101007.84
2019-05-22T19:09:37.994Z,101009.90
2019-05-22T19:12:07.493Z,101007.50
2019-05-22T19:14:39.533Z,101008.27
2019-05-22T19:17:09.135Z,101012.43
2019-05-22T19:19:38.536Z,101015.75
2019-05-22T19:22:08.613Z,101017.61
2019-05-22T19:24:39.219Z,101020.82
2019-05-22T19:27:10.048Z,101022.72
2019-05-22T19:29:39.845Z,101022.72
2019-05-22T19:32:09.034Z,101025.50
2019-05-22T19:34:38.536Z,101021.83
2019-05-22T19:37:08.705Z,101023.33
2019-05-22T19:39:38.327Z,101030.43
2019-05-22T19:42:08.138Z,101030.84
2019-05-22T19:44:36.901Z,101031.27
2019-05-22T19:47:06.950Z,101032.23
2019-05-22T19:49:37.307Z,101032.23
2019-05-22T19:52:10.809Z,101035.69
2019-05-22T19:54:41.648Z,101042.58
2019-05-22T19:57:11.394Z,101037.27
2019-05-22T19:59:40.576Z,101041.19
2019-05-22T20:02:10.933Z,101043.87
2019-05-22T20:04:39.969Z,101048.30
2019-05-22T20:07:09.908Z,101045.52
2019-05-22T20:09:39.947Z,101059.44
2019-05-22T20:12:09.286Z,101054.34
2019-05-22T20:14:38.242Z,101055.56
2019-05-22T20:17:08.046Z,101061.20
2019-05-22T20:19:36.976Z,101059.56
2019-05-22T20:22:06.723Z,101066.95
2019-05-22T20:24:39.141Z,101061.42
2019-05-22T20:27:09.835Z,101061.09
2019-05-22T20:29:39.462Z,101062.98
2019-05-22T20:32:10.212Z,101065.00
2019-05-22T20:34:39.217Z,101062.01
2019-05-22T20:37:08.036Z,101063.78
2019-05-22T20:39:37.302Z,101064.46
2019-05-22T20:42:08.050Z,101070.14
2019-05-22T20:44:38.083Z,101065.42
2019-05-22T20:47:07.800Z,101074.27
2019-05-22T20:49:39.071Z,101066.61
2019-05-22T20:52:10.974Z,101076.90
2019-05-22T20:54:41.269Z,101077.06
2019-05-22T20:57:12.221Z,101080.73
2019-05-22T20:59:42.821Z,101078.50
2019-05-22T21:02:12.466Z,101093.71
2019-05-22T21:04:43.768Z,101084.86
2019-05-22T21:07:13.787Z,101096.45
2019-05-22T21:09:43.259Z,101094.09
2019-05-22T21:12:13.526Z,101091.52
2019-05-22T21:14:42.645Z,101095.87
2019-05-22T21:17:12.585Z,101100.38
2019-05-22T21:19:41.726Z,101104.71
2019-05-22T21:22:12.189Z,101098.48
2019-05-22T21:24:41.107Z,101098.22
2019-05-22T21:27:10.731Z,101100.17
2019-05-22T21:29:39.596Z,101102.02
2019-05-22T21:32:08.651Z,101104.55
2019-05-22T21:34:39.249Z,101103.33
2019-05-22T21:37:08.585Z,101100.41
2019-05-22T21:39:38.020Z,101100.58
2019-05-22T21:42:07.976Z,101097.63
2019-05-22T21:44:37.296Z,101097.08
2019-05-22T21:47:07.402Z,101095.08
2019-05-22T21:49:38.930Z,101097.16
2019-05-22T21:52:08.493Z,101101.87
2019-05-22T21:54:38.126Z,101099.00
2019-05-22T21:57:06.950Z,101106.25
2019-05-22T21:59:35.680Z,101101.36
2019-05-22T22:02:09.494Z,101105.78
2019-05-22T22:04:38.242Z,101103.38
2019-05-22T22:07:06.899Z,101105.98
2019-05-22T22:09:38.468Z,101103.38
2019-05-22T22:12:09.842Z,101102.87
2019-05-22T22:14:40.190Z,101104.99
2019-05-22T22:17:10.256Z,101107.38
2019-05-22T22:19:39.120Z,101111.59
2019-05-22T22:22:11.682Z,101117.28
2019-05-22T22:24:40.387Z,101115.14
2019-05-22T22:27:10.597Z,101123.41
2019-05-22T22:29:39.247Z,101123.56
2019-05-22T22:32:11.038Z,101122.72
2019-05-22T22:34:43.428Z,101122.77
2019-05-22T22:37:13.679Z,101124.15
2019-05-22T22:39:44.080Z,101125.59
2019-05-22T22:42:14.390Z,101127.22
2019-05-22T22:44:44.409Z,101132.49
2019-05-22T22:47:17.981Z,101130.80
2019-05-22T22:49:48.120Z,101127.47
2019-05-22T22:52:19.547Z,101132.49
2019-05-22T22:54:48.671Z,101129.51
2019-05-22T22:57:18.371Z,101133.55
2019-05-22T22:59:47.254Z,101130.28
2019-05-22T23:02:17.752Z,101133.77
2019-05-22T23:04:48.669Z,101134.41
2019-05-22T23:07:19.568Z,101136.81
2019-05-22T23:09:49.229Z,101140.69
2019-05-22T23:12:20.823Z,101140.23
2019-05-22T23:14:52.464Z,101140.16
2019-05-22T23:17:21.526Z,101141.59
2019-05-22T23:19:49.935Z,101138.25
2019-05-22T23:22:18.133Z,101138.06
2019-05-22T23:24:49.774Z,101134.20
2019-05-22T23:27:19.502Z,101139.70
2019-05-22T23:29:48.409Z,101140.35
2019-05-22T23:32:18.564Z,101142.05
2019-05-22T23:34:48.308Z,101144.66
2019-05-22T23:37:20.344Z,101142.23
2019-05-22T23:39:50.872Z,101142.05
2019-05-22T23:42:22.603Z,101137.93
2019-05-22T23:44:54.147Z,101145.50
2019-05-22T23:47:23.380Z,101150.41
2019-05-22T23:49:52.700Z,101143.43
2019-05-22T23:52:22.233Z,101150.23
2019-05-22T23:54:52.177Z,101151.06
2019-05-22T23:57:22.982Z,101150.15
2019-05-22T23:59:53.604Z,101145.37
